sensor_id;sensor_type;location;lat;lon;timestamp;temperature;humidity
11264;DHT22;5689;48.798;9.070;2022-12-29T00:02:27;10.40;99.90
11264;DHT22;5689;48.798;9.070;2022-12-29T00:04:55;10.40;99.90
11264;DHT22;5689;48.798;9.070;2022-12-29T00:07:22;10.40;99.90
11264;DHT22;5689;48.798;9.070;2022-12-29T00:09:50;10.40;99.90
11264;DHT22;5689;48.798;9.070;2022-12-29T00:12:18;10.30;99.90
11264;DHT22;5689;48.798;9.070;2022-12-29T00:14:48;10.30;99.90
11264;DHT22;5689;48.798;9.070;2022-12-29T00:17:33;10.30;99.90
11264;DHT22;5689;48.798;9.070;2022-12-29T00:20:01;10.30;99.90
11264;DHT22;5689;48.798;9.070;2022-12-29T00:22:47;10.20;99.90
11264;DHT22;5689;48.798;9.070;2022-12-29T00:25:33;10.20;99.90
11264;DHT22;5689;48.798;9.070;2022-12-29T00:28:18;10.20;99.90
11264;DHT22;5689;48.798;9.070;2022-12-29T00:31:08;10.20;99.90
11264;DHT22;5689;48.798;9.070;2022-12-29T00:33:56;10.10;99.90
11264;DHT22;5689;48.798;9.070;2022-12-29T00:36:42;10.10;99.90
11264;DHT22;5689;48.798;9.070;2022-12-29T00:39:13;10.10;99.90
11264;DHT22;5689;48.798;9.070;2022-12-29T00:42:03;10.20;99.90
11264;DHT22;5689;48.798;9.070;2022-12-29T00:44:49;10.30;99.90
11264;DHT22;5689;48.798;9.070;2022-12-29T00:47:18;10.40;99.90
11264;DHT22;5689;48.798;9.070;2022-12-29T00:49:47;10.50;99.90
11264;DHT22;5689;48.798;9.070;2022-12-29T00:52:14;10.50;99.90
11264;DHT22;5689;48.798;9.070;2022-12-29T00:54:44;10.50;99.90
11264;DHT22;5689;48.798;9.070;2022-12-29T00:57:12;10.60;99.90
11264;DHT22;5689;48.798;9.070;2022-12-29T00:59:41;10.60;99.90
11264;DHT22;5689;48.798;9.070;2022-12-29T01:02:10;10.70;99.90
11264;DHT22;5689;48.798;9.070;2022-12-29T01:04:40;10.70;99.90
11264;DHT22;5689;48.798;9.070;2022-12-29T01:07:08;10.80;99.90
11264;DHT22;5689;48.798;9.070;2022-12-29T01:09:36;10.80;99.90
11264;DHT22;5689;48.798;9.070;2022-12-29T01:12:22;10.90;99.90
11264;DHT22;5689;48.798;9.070;2022-12-29T01:15:05;10.90;99.90
11264;DHT22;5689;48.798;9.070;2022-12-29T01:17:33;10.90;99.90
11264;DHT22;5689;48.798;9.070;2022-12-29T01:20:03;11.00;99.90
11264;DHT22;5689;48.798;9.070;2022-12-29T01:22:31;11.10;99.90
11264;DHT22;5689;48.798;9.070;2022-12-29T01:24:59;11.10;99.90
11264;DHT22;5689;48.798;9.070;2022-12-29T01:27:27;11.20;99.90
11264;DHT22;5689;48.798;9.070;2022-12-29T01:29:55;11.30;99.90
11264;DHT22;5689;48.798;9.070;2022-12-29T01:32:57;11.40;99.90
11264;DHT22;5689;48.798;9.070;2022-12-29T01:35:27;11.30;99.90
11264;DHT22;5689;48.798;9.070;2022-12-29T01:37:57;11.40;99.90
11264;DHT22;5689;48.798;9.070;2022-12-29T01:40:25;11.30;99.90
11264;DHT22;5689;48.798;9.070;2022-12-29T01:42:53;11.30;99.90
11264;DHT22;5689;48.798;9.070;2022-12-29T01:45:22;11.30;99.90
11264;DHT22;5689;48.798;9.070;2022-12-29T01:48:08;11.40;99.90
11264;DHT22;5689;48.798;9.070;2022-12-29T01:50:41;11.40;99.90
11264;DHT22;5689;48.798;9.070;2022-12-29T01:53:14;11.40;99.90
11264;DHT22;5689;48.798;9.070;2022-12-29T01:55:48;11.40;99.90
11264;DHT22;5689;48.798;9.070;2022-12-29T01:58:20;11.40;99.90
11264;DHT22;5689;48.798;9.070;2022-12-29T02:00:50;11.30;99.90
11264;DHT22;5689;48.798;9.070;2022-12-29T02:03:19;11.30;99.90
11264;DHT22;5689;48.798;9.070;2022-12-29T02:06:10;11.30;99.90
11264;DHT22;5689;48.798;9.070;2022-12-29T02:08:40;11.40;99.90
11264;DHT22;5689;48.798;9.070;2022-12-29T02:11:09;11.40;99.90
11264;DHT22;5689;48.798;9.070;2022-12-29T02:13:37;11.40;99.90
11264;DHT22;5689;48.798;9.070;2022-12-29T02:16:21;11.40;99.90
11264;DHT22;5689;48.798;9.070;2022-12-29T02:22:04;11.40;99.90
11264;DHT22;5689;48.798;9.070;2022-12-29T02:25:11;11.40;99.90
11264;DHT22;5689;48.798;9.070;2022-12-29T02:27:52;11.40;99.90
11264;DHT22;5689;48.798;9.070;2022-12-29T02:33:46;11.40;99.90
11264;DHT22;5689;48.798;9.070;2022-12-29T02:36:23;11.40;99.90
11264;DHT22;5689;48.798;9.070;2022-12-29T02:39:00;11.40;99.90
11264;DHT22;5689;48.798;9.070;2022-12-29T02:41:33;11.50;99.90
11264;DHT22;5689;48.798;9.070;2022-12-29T02:44:19;11.50;99.90
11264;DHT22;5689;48.798;9.070;2022-12-29T02:46:56;11.50;99.90
11264;DHT22;5689;48.798;9.070;2022-12-29T02:49:35;11.50;99.90
11264;DHT22;5689;48.798;9.070;2022-12-29T02:52:08;11.40;99.90
11264;DHT22;5689;48.798;9.070;2022-12-29T02:54:40;11.50;99.90
11264;DHT22;5689;48.798;9.070;2022-12-29T02:57:31;11.50;99.90
11264;DHT22;5689;48.798;9.070;2022-12-29T03:00:03;11.60;99.90
11264;DHT22;5689;48.798;9.070;2022-12-29T03:02:50;11.60;99.90
11264;DHT22;5689;48.798;9.070;2022-12-29T03:05:36;11.50;99.90
11264;DHT22;5689;48.798;9.070;2022-12-29T03:08:18;11.30;99.90
11264;DHT22;5689;48.798;9.070;2022-12-29T03:10:54;11.30;99.90
11264;DHT22;5689;48.798;9.070;2022-12-29T03:13:29;11.20;99.90
11264;DHT22;5689;48.798;9.070;2022-12-29T03:16:32;11.10;99.90
11264;DHT22;5689;48.798;9.070;2022-12-29T03:19:06;11.20;99.90
11264;DHT22;5689;48.798;9.070;2022-12-29T03:21:40;11.30;99.90
11264;DHT22;5689;48.798;9.070;2022-12-29T03:24:34;11.50;99.90
11264;DHT22;5689;48.798;9.070;2022-12-29T03:27:21;11.60;99.90
11264;DHT22;5689;48.798;9.070;2022-12-29T03:29:54;11.60;99.90
11264;DHT22;5689;48.798;9.070;2022-12-29T03:32:25;11.60;99.90
11264;DHT22;5689;48.798;9.070;2022-12-29T03:34:57;11.60;99.90
11264;DHT22;5689;48.798;9.070;2022-12-29T03:37:29;11.70;99.90
11264;DHT22;5689;48.798;9.070;2022-12-29T03:39:58;11.70;99.90
11264;DHT22;5689;48.798;9.070;2022-12-29T03:42:29;11.70;99.90
11264;DHT22;5689;48.798;9.070;2022-12-29T03:45:11;11.60;99.90
11264;DHT22;5689;48.798;9.070;2022-12-29T03:47:39;11.70;99.90
11264;DHT22;5689;48.798;9.070;2022-12-29T03:50:08;11.60;99.90
11264;DHT22;5689;48.798;9.070;2022-12-29T03:52:40;11.60;99.90
11264;DHT22;5689;48.798;9.070;2022-12-29T03:55:09;11.50;99.90
11264;DHT22;5689;48.798;9.070;2022-12-29T03:57:38;11.50;99.90
11264;DHT22;5689;48.798;9.070;2022-12-29T04:00:11;11.50;99.90
11264;DHT22;5689;48.798;9.070;2022-12-29T04:02:47;11.50;99.90
11264;DHT22;5689;48.798;9.070;2022-12-29T04:05:26;11.50;99.90
11264;DHT22;5689;48.798;9.070;2022-12-29T04:07:56;11.40;99.90
11264;DHT22;5689;48.798;9.070;2022-12-29T04:10:24;11.30;99.90
11264;DHT22;5689;48.798;9.070;2022-12-29T04:12:56;11.20;99.90
11264;DHT22;5689;48.798;9.070;2022-12-29T04:15:25;11.20;99.90
11264;DHT22;5689;48.798;9.070;2022-12-29T04:17:53;11.20;99.90
11264;DHT22;5689;48.798;9.070;2022-12-29T04:20:21;11.10;99.90
11264;DHT22;5689;48.798;9.070;2022-12-29T04:23:13;10.90;99.90
11264;DHT22;5689;48.798;9.070;2022-12-29T04:25:45;11.00;99.90
11264;DHT22;5689;48.798;9.070;2022-12-29T04:28:13;11.00;99.90
11264;DHT22;5689;48.798;9.070;2022-12-29T04:30:52;11.10;99.90
11264;DHT22;5689;48.798;9.070;2022-12-29T04:33:27;11.20;99.90
11264;DHT22;5689;48.798;9.070;2022-12-29T04:35:57;11.20;99.90
11264;DHT22;5689;48.798;9.070;2022-12-29T04:38:26;11.20;99.90
11264;DHT22;5689;48.798;9.070;2022-12-29T04:40:54;11.20;99.90
11264;DHT22;5689;48.798;9.070;2022-12-29T04:43:34;11.20;99.90
11264;DHT22;5689;48.798;9.070;2022-12-29T04:46:36;11.10;99.90
11264;DHT22;5689;48.798;9.070;2022-12-29T04:49:08;11.10;99.90
11264;DHT22;5689;48.798;9.070;2022-12-29T04:52:06;11.10;99.90
11264;DHT22;5689;48.798;9.070;2022-12-29T04:54:37;11.10;99.90
11264;DHT22;5689;48.798;9.070;2022-12-29T04:57:11;11.20;99.90
11264;DHT22;5689;48.798;9.070;2022-12-29T04:59:40;11.20;99.90
11264;DHT22;5689;48.798;9.070;2022-12-29T05:02:08;11.10;99.90
11264;DHT22;5689;48.798;9.070;2022-12-29T05:04:36;11.10;99.90
11264;DHT22;5689;48.798;9.070;2022-12-29T05:07:04;11.00;99.90
11264;DHT22;5689;48.798;9.070;2022-12-29T05:09:32;11.00;99.90
11264;DHT22;5689;48.798;9.070;2022-12-29T05:12:02;11.00;99.90
11264;DHT22;5689;48.798;9.070;2022-12-29T05:14:44;11.00;99.90
11264;DHT22;5689;48.798;9.070;2022-12-29T05:17:13;11.20;99.90
11264;DHT22;5689;48.798;9.070;2022-12-29T05:19:41;11.30;99.90
11264;DHT22;5689;48.798;9.070;2022-12-29T05:22:08;11.30;99.90
11264;DHT22;5689;48.798;9.070;2022-12-29T05:24:38;11.20;99.90
11264;DHT22;5689;48.798;9.070;2022-12-29T05:27:07;11.40;99.90
11264;DHT22;5689;48.798;9.070;2022-12-29T05:29:57;11.30;99.90
11264;DHT22;5689;48.798;9.070;2022-12-29T05:32:36;11.40;99.90
11264;DHT22;5689;48.798;9.070;2022-12-29T05:35:05;11.50;99.90
11264;DHT22;5689;48.798;9.070;2022-12-29T05:37:33;11.50;99.90
11264;DHT22;5689;48.798;9.070;2022-12-29T05:40:02;11.50;99.90
11264;DHT22;5689;48.798;9.070;2022-12-29T05:42:32;11.50;99.90
11264;DHT22;5689;48.798;9.070;2022-12-29T05:45:14;11.60;99.90
11264;DHT22;5689;48.798;9.070;2022-12-29T05:48:04;11.70;99.90
11264;DHT22;5689;48.798;9.070;2022-12-29T05:50:50;11.60;99.90
11264;DHT22;5689;48.798;9.070;2022-12-29T05:53:24;11.70;99.90
11264;DHT22;5689;48.798;9.070;2022-12-29T05:55:52;11.80;99.90
11264;DHT22;5689;48.798;9.070;2022-12-29T05:58:21;11.90;99.90
11264;DHT22;5689;48.798;9.070;2022-12-29T06:00:51;11.80;99.90
11264;DHT22;5689;48.798;9.070;2022-12-29T06:03:18;11.80;99.90
11264;DHT22;5689;48.798;9.070;2022-12-29T06:05:46;11.80;99.90
11264;DHT22;5689;48.798;9.070;2022-12-29T06:08:15;11.70;99.90
11264;DHT22;5689;48.798;9.070;2022-12-29T06:10:43;11.60;99.90
11264;DHT22;5689;48.798;9.070;2022-12-29T06:13:11;11.50;99.90
11264;DHT22;5689;48.798;9.070;2022-12-29T06:15:44;11.50;99.90
11264;DHT22;5689;48.798;9.070;2022-12-29T06:18:12;11.50;99.90
11264;DHT22;5689;48.798;9.070;2022-12-29T06:20:44;11.40;99.90
11264;DHT22;5689;48.798;9.070;2022-12-29T06:23:12;11.30;99.90
11264;DHT22;5689;48.798;9.070;2022-12-29T06:25:39;11.50;99.90
11264;DHT22;5689;48.798;9.070;2022-12-29T06:28:07;11.50;99.90
11264;DHT22;5689;48.798;9.070;2022-12-29T06:30:37;11.50;99.90
11264;DHT22;5689;48.798;9.070;2022-12-29T06:33:07;11.40;99.90
11264;DHT22;5689;48.798;9.070;2022-12-29T06:35:35;11.40;99.90
11264;DHT22;5689;48.798;9.070;2022-12-29T06:38:03;11.40;99.90
11264;DHT22;5689;48.798;9.070;2022-12-29T06:40:31;11.20;99.90
11264;DHT22;5689;48.798;9.070;2022-12-29T06:43:10;11.30;99.90
11264;DHT22;5689;48.798;9.070;2022-12-29T06:45:51;11.40;99.90
11264;DHT22;5689;48.798;9.070;2022-12-29T06:48:20;11.40;99.90
11264;DHT22;5689;48.798;9.070;2022-12-29T06:50:48;11.40;99.90
11264;DHT22;5689;48.798;9.070;2022-12-29T06:53:16;11.40;99.90
11264;DHT22;5689;48.798;9.070;2022-12-29T06:55:44;11.40;99.90
11264;DHT22;5689;48.798;9.070;2022-12-29T06:58:12;11.40;99.90
11264;DHT22;5689;48.798;9.070;2022-12-29T07:00:40;11.40;99.90
11264;DHT22;5689;48.798;9.070;2022-12-29T07:03:08;11.40;99.90
11264;DHT22;5689;48.798;9.070;2022-12-29T07:05:37;11.40;99.90
11264;DHT22;5689;48.798;9.070;2022-12-29T07:08:05;11.30;99.90
11264;DHT22;5689;48.798;9.070;2022-12-29T07:10:33;11.40;99.90
11264;DHT22;5689;48.798;9.070;2022-12-29T07:13:01;11.40;99.90
11264;DHT22;5689;48.798;9.070;2022-12-29T07:15:29;11.50;99.90
11264;DHT22;5689;48.798;9.070;2022-12-29T07:17:57;11.40;99.90
11264;DHT22;5689;48.798;9.070;2022-12-29T07:20:25;11.40;99.90
11264;DHT22;5689;48.798;9.070;2022-12-29T07:22:55;11.30;99.90
11264;DHT22;5689;48.798;9.070;2022-12-29T07:25:23;11.30;99.90
11264;DHT22;5689;48.798;9.070;2022-12-29T07:27:51;11.30;99.90
11264;DHT22;5689;48.798;9.070;2022-12-29T07:30:19;11.10;99.90
11264;DHT22;5689;48.798;9.070;2022-12-29T07:32:47;11.20;99.90
11264;DHT22;5689;48.798;9.070;2022-12-29T07:35:15;11.10;99.90
11264;DHT22;5689;48.798;9.070;2022-12-29T07:37:43;11.20;99.90
11264;DHT22;5689;48.798;9.070;2022-12-29T07:40:13;11.20;99.90
11264;DHT22;5689;48.798;9.070;2022-12-29T07:42:41;11.10;99.90
11264;DHT22;5689;48.798;9.070;2022-12-29T07:45:10;11.10;99.90
11264;DHT22;5689;48.798;9.070;2022-12-29T07:47:48;11.10;99.90
11264;DHT22;5689;48.798;9.070;2022-12-29T07:50:16;11.00;99.90
11264;DHT22;5689;48.798;9.070;2022-12-29T07:52:44;11.00;99.90
11264;DHT22;5689;48.798;9.070;2022-12-29T07:55:16;11.00;99.90
11264;DHT22;5689;48.798;9.070;2022-12-29T07:57:44;11.10;99.90
11264;DHT22;5689;48.798;9.070;2022-12-29T08:00:13;11.10;99.90
11264;DHT22;5689;48.798;9.070;2022-12-29T08:02:41;11.10;99.90
11264;DHT22;5689;48.798;9.070;2022-12-29T08:05:09;11.00;99.90
11264;DHT22;5689;48.798;9.070;2022-12-29T08:07:37;11.00;99.90
11264;DHT22;5689;48.798;9.070;2022-12-29T08:10:06;11.10;99.90
11264;DHT22;5689;48.798;9.070;2022-12-29T08:12:37;11.20;99.90
11264;DHT22;5689;48.798;9.070;2022-12-29T08:15:07;11.30;99.90
11264;DHT22;5689;48.798;9.070;2022-12-29T08:17:36;11.30;99.90
11264;DHT22;5689;48.798;9.070;2022-12-29T08:20:04;11.30;99.90
11264;DHT22;5689;48.798;9.070;2022-12-29T08:22:32;11.40;99.90
11264;DHT22;5689;48.798;9.070;2022-12-29T08:25:00;11.40;99.90
11264;DHT22;5689;48.798;9.070;2022-12-29T08:27:28;11.50;99.90
11264;DHT22;5689;48.798;9.070;2022-12-29T08:29:57;11.70;99.90
11264;DHT22;5689;48.798;9.070;2022-12-29T08:32:27;11.70;99.90
11264;DHT22;5689;48.798;9.070;2022-12-29T08:34:55;11.70;99.90
11264;DHT22;5689;48.798;9.070;2022-12-29T08:37:23;11.70;99.90
11264;DHT22;5689;48.798;9.070;2022-12-29T08:39:54;11.60;99.90
11264;DHT22;5689;48.798;9.070;2022-12-29T08:42:24;11.70;99.90
11264;DHT22;5689;48.798;9.070;2022-12-29T08:44:58;11.60;99.90
11264;DHT22;5689;48.798;9.070;2022-12-29T08:47:27;11.60;99.90
11264;DHT22;5689;48.798;9.070;2022-12-29T08:49:55;11.80;99.90
11264;DHT22;5689;48.798;9.070;2022-12-29T08:52:23;11.80;99.90
11264;DHT22;5689;48.798;9.070;2022-12-29T08:54:52;11.80;99.90
11264;DHT22;5689;48.798;9.070;2022-12-29T08:57:20;11.90;99.90
11264;DHT22;5689;48.798;9.070;2022-12-29T09:00:02;11.70;99.90
11264;DHT22;5689;48.798;9.070;2022-12-29T09:02:30;11.70;99.90
11264;DHT22;5689;48.798;9.070;2022-12-29T09:04:58;11.80;99.90
11264;DHT22;5689;48.798;9.070;2022-12-29T09:07:27;11.90;99.90
11264;DHT22;5689;48.798;9.070;2022-12-29T09:09:55;12.10;99.90
11264;DHT22;5689;48.798;9.070;2022-12-29T09:12:23;12.10;99.90
11264;DHT22;5689;48.798;9.070;2022-12-29T09:14:51;12.20;99.90
11264;DHT22;5689;48.798;9.070;2022-12-29T09:17:20;12.40;99.90
11264;DHT22;5689;48.798;9.070;2022-12-29T09:20:07;12.30;99.90
11264;DHT22;5689;48.798;9.070;2022-12-29T09:22:35;12.50;99.90
11264;DHT22;5689;48.798;9.070;2022-12-29T09:25:04;12.80;99.90
11264;DHT22;5689;48.798;9.070;2022-12-29T09:27:32;12.80;99.90
11264;DHT22;5689;48.798;9.070;2022-12-29T09:30:00;13.00;99.90
11264;DHT22;5689;48.798;9.070;2022-12-29T09:32:29;13.20;99.90
11264;DHT22;5689;48.798;9.070;2022-12-29T09:34:59;13.40;99.90
11264;DHT22;5689;48.798;9.070;2022-12-29T09:37:27;13.50;99.90
11264;DHT22;5689;48.798;9.070;2022-12-29T09:39:55;13.40;99.90
11264;DHT22;5689;48.798;9.070;2022-12-29T09:42:27;13.40;99.90
11264;DHT22;5689;48.798;9.070;2022-12-29T09:45:06;13.70;99.90
11264;DHT22;5689;48.798;9.070;2022-12-29T09:47:38;13.70;99.90
11264;DHT22;5689;48.798;9.070;2022-12-29T09:50:20;13.90;99.90
11264;DHT22;5689;48.798;9.070;2022-12-29T09:52:53;13.90;99.90
11264;DHT22;5689;48.798;9.070;2022-12-29T09:55:25;14.20;99.90
11264;DHT22;5689;48.798;9.070;2022-12-29T09:57:59;14.10;99.90
11264;DHT22;5689;48.798;9.070;2022-12-29T10:00:36;13.90;99.90
11264;DHT22;5689;48.798;9.070;2022-12-29T10:03:13;13.80;99.90
11264;DHT22;5689;48.798;9.070;2022-12-29T10:05:48;13.70;99.90
11264;DHT22;5689;48.798;9.070;2022-12-29T10:08:25;13.70;99.90
11264;DHT22;5689;48.798;9.070;2022-12-29T10:10:56;13.60;99.90
11264;DHT22;5689;48.798;9.070;2022-12-29T10:13:29;13.40;99.90
11264;DHT22;5689;48.798;9.070;2022-12-29T10:16:02;13.40;99.90
11264;DHT22;5689;48.798;9.070;2022-12-29T10:18:56;13.50;99.90
11264;DHT22;5689;48.798;9.070;2022-12-29T10:21:39;13.60;99.90
11264;DHT22;5689;48.798;9.070;2022-12-29T10:24:12;13.60;99.90
11264;DHT22;5689;48.798;9.070;2022-12-29T10:26:42;13.60;99.90
11264;DHT22;5689;48.798;9.070;2022-12-29T10:29:15;13.60;99.90
11264;DHT22;5689;48.798;9.070;2022-12-29T10:31:47;13.50;99.90
11264;DHT22;5689;48.798;9.070;2022-12-29T10:34:21;13.70;99.90
11264;DHT22;5689;48.798;9.070;2022-12-29T10:36:54;14.00;99.90
11264;DHT22;5689;48.798;9.070;2022-12-29T10:39:30;14.50;99.90
11264;DHT22;5689;48.798;9.070;2022-12-29T10:42:03;14.70;99.90
11264;DHT22;5689;48.798;9.070;2022-12-29T10:44:37;14.90;99.90
11264;DHT22;5689;48.798;9.070;2022-12-29T10:47:10;14.60;99.90
11264;DHT22;5689;48.798;9.070;2022-12-29T10:49:42;14.20;99.90
11264;DHT22;5689;48.798;9.070;2022-12-29T10:52:12;14.00;99.90
11264;DHT22;5689;48.798;9.070;2022-12-29T10:54:45;14.30;99.90
11264;DHT22;5689;48.798;9.070;2022-12-29T10:57:24;14.40;99.90
11264;DHT22;5689;48.798;9.070;2022-12-29T10:59:53;15.50;99.90
11264;DHT22;5689;48.798;9.070;2022-12-29T11:02:43;15.70;99.90
11264;DHT22;5689;48.798;9.070;2022-12-29T11:05:21;14.90;99.90
11264;DHT22;5689;48.798;9.070;2022-12-29T11:07:52;14.30;99.90
11264;DHT22;5689;48.798;9.070;2022-12-29T11:10:30;14.10;99.90
11264;DHT22;5689;48.798;9.070;2022-12-29T11:13:00;14.20;99.90
11264;DHT22;5689;48.798;9.070;2022-12-29T11:15:39;14.20;99.90
11264;DHT22;5689;48.798;9.070;2022-12-29T11:18:18;14.40;99.90
11264;DHT22;5689;48.798;9.070;2022-12-29T11:20:50;14.30;99.90
11264;DHT22;5689;48.798;9.070;2022-12-29T11:23:28;14.40;99.90
11264;DHT22;5689;48.798;9.070;2022-12-29T11:26:15;14.20;99.90
11264;DHT22;5689;48.798;9.070;2022-12-29T11:28:45;14.10;99.90
11264;DHT22;5689;48.798;9.070;2022-12-29T11:31:16;14.10;99.90
11264;DHT22;5689;48.798;9.070;2022-12-29T11:33:45;13.90;99.90
11264;DHT22;5689;48.798;9.070;2022-12-29T11:36:17;13.80;99.90
11264;DHT22;5689;48.798;9.070;2022-12-29T11:38:49;13.70;99.90
11264;DHT22;5689;48.798;9.070;2022-12-29T11:41:22;13.70;99.90
11264;DHT22;5689;48.798;9.070;2022-12-29T11:43:52;13.60;99.90
11264;DHT22;5689;48.798;9.070;2022-12-29T11:46:25;13.50;99.90
11264;DHT22;5689;48.798;9.070;2022-12-29T11:48:54;13.40;99.90
11264;DHT22;5689;48.798;9.070;2022-12-29T11:51:30;13.30;99.90
11264;DHT22;5689;48.798;9.070;2022-12-29T11:53:59;12.80;99.90
11264;DHT22;5689;48.798;9.070;2022-12-29T11:56:35;12.10;99.90
11264;DHT22;5689;48.798;9.070;2022-12-29T11:59:29;11.60;99.90
11264;DHT22;5689;48.798;9.070;2022-12-29T12:02:20;11.40;99.90
11264;DHT22;5689;48.798;9.070;2022-12-29T12:04:51;11.30;99.90
11264;DHT22;5689;48.798;9.070;2022-12-29T12:07:26;11.20;99.90
11264;DHT22;5689;48.798;9.070;2022-12-29T12:09:58;11.20;99.90
11264;DHT22;5689;48.798;9.070;2022-12-29T12:12:35;11.20;99.90
11264;DHT22;5689;48.798;9.070;2022-12-29T12:15:08;11.30;99.90
11264;DHT22;5689;48.798;9.070;2022-12-29T12:17:57;11.40;99.90
11264;DHT22;5689;48.798;9.070;2022-12-29T12:20:36;11.50;99.90
11264;DHT22;5689;48.798;9.070;2022-12-29T12:23:18;11.60;99.90
11264;DHT22;5689;48.798;9.070;2022-12-29T12:25:53;11.80;99.90
11264;DHT22;5689;48.798;9.070;2022-12-29T12:28:32;11.90;99.90
11264;DHT22;5689;48.798;9.070;2022-12-29T12:31:05;12.10;99.90
11264;DHT22;5689;48.798;9.070;2022-12-29T12:33:38;12.20;99.90
11264;DHT22;5689;48.798;9.070;2022-12-29T12:36:22;12.40;99.90
11264;DHT22;5689;48.798;9.070;2022-12-29T12:39:00;12.50;99.90
11264;DHT22;5689;48.798;9.070;2022-12-29T12:41:39;12.60;99.90
11264;DHT22;5689;48.798;9.070;2022-12-29T12:44:13;12.70;99.90
11264;DHT22;5689;48.798;9.070;2022-12-29T12:47:06;12.80;99.90
11264;DHT22;5689;48.798;9.070;2022-12-29T12:50:07;13.00;99.90
11264;DHT22;5689;48.798;9.070;2022-12-29T12:52:48;13.30;99.90
11264;DHT22;5689;48.798;9.070;2022-12-29T12:55:41;13.40;99.90
11264;DHT22;5689;48.798;9.070;2022-12-29T12:58:20;13.00;99.90
11264;DHT22;5689;48.798;9.070;2022-12-29T13:01:00;13.20;99.90
11264;DHT22;5689;48.798;9.070;2022-12-29T13:03:47;13.10;99.90
11264;DHT22;5689;48.798;9.070;2022-12-29T13:06:24;13.30;99.90
11264;DHT22;5689;48.798;9.070;2022-12-29T13:09:17;13.40;99.90
11264;DHT22;5689;48.798;9.070;2022-12-29T13:12:03;13.00;99.90
11264;DHT22;5689;48.798;9.070;2022-12-29T13:14:44;13.00;99.90
11264;DHT22;5689;48.798;9.070;2022-12-29T13:17:19;13.30;99.90
11264;DHT22;5689;48.798;9.070;2022-12-29T13:19:55;13.50;99.90
11264;DHT22;5689;48.798;9.070;2022-12-29T13:22:28;13.40;99.90
11264;DHT22;5689;48.798;9.070;2022-12-29T13:25:18;13.20;99.90
11264;DHT22;5689;48.798;9.070;2022-12-29T13:27:52;13.00;99.90
11264;DHT22;5689;48.798;9.070;2022-12-29T13:30:26;12.90;99.90
11264;DHT22;5689;48.798;9.070;2022-12-29T13:33:03;12.70;99.90
11264;DHT22;5689;48.798;9.070;2022-12-29T13:35:52;12.70;99.90
11264;DHT22;5689;48.798;9.070;2022-12-29T13:38:25;12.60;99.90
11264;DHT22;5689;48.798;9.070;2022-12-29T13:40:55;12.60;99.90
11264;DHT22;5689;48.798;9.070;2022-12-29T13:43:27;12.60;99.90
11264;DHT22;5689;48.798;9.070;2022-12-29T13:46:00;12.70;99.90
11264;DHT22;5689;48.798;9.070;2022-12-29T13:48:36;12.60;99.90
11264;DHT22;5689;48.798;9.070;2022-12-29T13:51:05;12.70;99.90
11264;DHT22;5689;48.798;9.070;2022-12-29T13:53:49;12.60;99.90
11264;DHT22;5689;48.798;9.070;2022-12-29T13:56:24;12.60;99.90
11264;DHT22;5689;48.798;9.070;2022-12-29T13:59:02;12.60;99.90
11264;DHT22;5689;48.798;9.070;2022-12-29T14:01:35;12.70;99.90
11264;DHT22;5689;48.798;9.070;2022-12-29T14:04:12;12.80;99.90
11264;DHT22;5689;48.798;9.070;2022-12-29T14:06:40;12.80;99.90
11264;DHT22;5689;48.798;9.070;2022-12-29T14:09:37;12.80;99.90
11264;DHT22;5689;48.798;9.070;2022-12-29T14:12:23;12.70;99.90
11264;DHT22;5689;48.798;9.070;2022-12-29T14:15:06;12.70;99.90
11264;DHT22;5689;48.798;9.070;2022-12-29T14:17:42;12.70;99.90
11264;DHT22;5689;48.798;9.070;2022-12-29T14:20:18;12.70;99.90
11264;DHT22;5689;48.798;9.070;2022-12-29T14:22:58;12.70;99.90
11264;DHT22;5689;48.798;9.070;2022-12-29T14:25:52;12.80;99.90
11264;DHT22;5689;48.798;9.070;2022-12-29T14:28:24;12.80;99.90
11264;DHT22;5689;48.798;9.070;2022-12-29T14:30:55;12.80;99.90
11264;DHT22;5689;48.798;9.070;2022-12-29T14:33:25;12.90;99.90
11264;DHT22;5689;48.798;9.070;2022-12-29T14:35:54;12.80;99.90
11264;DHT22;5689;48.798;9.070;2022-12-29T14:38:28;12.60;99.90
11264;DHT22;5689;48.798;9.070;2022-12-29T14:41:18;12.50;99.90
11264;DHT22;5689;48.798;9.070;2022-12-29T14:43:57;12.50;99.90
11264;DHT22;5689;48.798;9.070;2022-12-29T14:46:44;12.40;99.90
11264;DHT22;5689;48.798;9.070;2022-12-29T14:49:17;12.40;99.90
11264;DHT22;5689;48.798;9.070;2022-12-29T14:51:46;12.40;99.90
11264;DHT22;5689;48.798;9.070;2022-12-29T14:54:45;12.40;99.90
11264;DHT22;5689;48.798;9.070;2022-12-29T15:00:18;12.30;99.90
11264;DHT22;5689;48.798;9.070;2022-12-29T15:02:51;12.30;99.90
11264;DHT22;5689;48.798;9.070;2022-12-29T15:05:30;12.30;99.90
11264;DHT22;5689;48.798;9.070;2022-12-29T15:07:59;12.20;99.90
11264;DHT22;5689;48.798;9.070;2022-12-29T15:10:35;12.10;99.90
11264;DHT22;5689;48.798;9.070;2022-12-29T15:13:13;12.00;99.90
11264;DHT22;5689;48.798;9.070;2022-12-29T15:15:42;12.00;99.90
11264;DHT22;5689;48.798;9.070;2022-12-29T15:18:25;11.90;99.90
11264;DHT22;5689;48.798;9.070;2022-12-29T15:20:56;11.80;99.90
11264;DHT22;5689;48.798;9.070;2022-12-29T15:23:26;11.70;99.90
11264;DHT22;5689;48.798;9.070;2022-12-29T15:25:56;11.70;99.90
11264;DHT22;5689;48.798;9.070;2022-12-29T15:28:26;11.60;99.90
11264;DHT22;5689;48.798;9.070;2022-12-29T15:30:56;11.60;99.90
11264;DHT22;5689;48.798;9.070;2022-12-29T15:33:27;11.50;99.90
11264;DHT22;5689;48.798;9.070;2022-12-29T15:35:57;11.50;99.90
11264;DHT22;5689;48.798;9.070;2022-12-29T15:38:30;11.50;99.90
11264;DHT22;5689;48.798;9.070;2022-12-29T15:41:07;11.50;99.90
11264;DHT22;5689;48.798;9.070;2022-12-29T15:43:48;11.10;99.90
11264;DHT22;5689;48.798;9.070;2022-12-29T15:46:18;10.90;99.90
11264;DHT22;5689;48.798;9.070;2022-12-29T15:48:48;10.50;99.90
11264;DHT22;5689;48.798;9.070;2022-12-29T15:51:19;10.10;99.90
11264;DHT22;5689;48.798;9.070;2022-12-29T15:53:48;9.90;99.90
11264;DHT22;5689;48.798;9.070;2022-12-29T15:56:18;9.80;99.90
11264;DHT22;5689;48.798;9.070;2022-12-29T15:58:48;9.70;99.90
11264;DHT22;5689;48.798;9.070;2022-12-29T16:01:19;9.70;99.90
11264;DHT22;5689;48.798;9.070;2022-12-29T16:03:53;9.70;99.90
11264;DHT22;5689;48.798;9.070;2022-12-29T16:06:30;9.60;99.90
11264;DHT22;5689;48.798;9.070;2022-12-29T16:09:00;9.60;99.90
11264;DHT22;5689;48.798;9.070;2022-12-29T16:11:33;9.50;99.90
11264;DHT22;5689;48.798;9.070;2022-12-29T16:14:06;9.50;99.90
11264;DHT22;5689;48.798;9.070;2022-12-29T16:16:37;9.40;99.90
11264;DHT22;5689;48.798;9.070;2022-12-29T16:19:12;9.30;99.90
11264;DHT22;5689;48.798;9.070;2022-12-29T16:21:42;9.20;99.90
11264;DHT22;5689;48.798;9.070;2022-12-29T16:24:14;9.20;99.90
11264;DHT22;5689;48.798;9.070;2022-12-29T16:26:48;9.20;99.90
11264;DHT22;5689;48.798;9.070;2022-12-29T16:29:18;9.20;99.90
11264;DHT22;5689;48.798;9.070;2022-12-29T16:31:51;9.20;99.90
11264;DHT22;5689;48.798;9.070;2022-12-29T16:34:24;9.20;99.90
11264;DHT22;5689;48.798;9.070;2022-12-29T16:36:55;9.20;99.90
11264;DHT22;5689;48.798;9.070;2022-12-29T16:39:34;9.20;99.90
11264;DHT22;5689;48.798;9.070;2022-12-29T16:42:33;9.30;99.90